Time;durP1;ratioP1;P1;durP2;ratioP2;P2;SDS_P1;SDS_P2;PMS_P1;PMS_P2;Temp;Humidity;BMP_temperature;BMP_pressure;BME280_temperature;BME280_humidity;BME280_pressure;Samples;Min_cycle;Max_cycle;Signal;HPM_P1;HPM_P2
2023/12/12 00:02:12;;;;;;;;;;;;;;;8.64;40.07;100556.81;5078528;28;19912;-63
2023/12/12 00:04:38;;;;;;;;;;;;;;;8.64;40.70;100551.47;5073297;28;19923;-62
2023/12/12 00:07:03;;;;;;;;;;;;;;;8.63;40.54;100563.16;5071244;28;20396;-60
2023/12/12 00:09:28;;;;;;;;;;;;;;;8.62;40.29;100556.16;5085316;28;19923;-61
2023/12/12 00:11:54;;;;;;;;;;;;;;;8.65;40.70;100560.31;5072406;28;19936;-61
2023/12/12 00:14:20;;;;;;;;;;;;;;;8.64;40.58;100556.81;5071942;28;19917;-61
2023/12/12 00:16:45;;;;;;;;;;;;;;;8.63;40.06;100554.31;5077058;28;19927;-62
2023/12/12 00:19:10;;;;;;;;;;;;;;;8.66;41.26;100543.25;5071529;28;19917;-62
2023/12/12 00:21:36;;;;;;;;;;;;;;;8.66;39.95;100548.59;5073015;28;19921;-62
2023/12/12 00:24:02;;;;;;;;;;;;;;;8.61;39.91;100553.66;5071319;28;20293;-64
2023/12/12 00:26:27;;;;;;;;;;;;;;;8.65;40.56;100553.09;5074077;28;20014;-64
2023/12/12 00:28:53;;;;;;;;;;;;;;;8.69;41.49;100543.72;5072964;28;20428;-63
2023/12/12 00:31:18;;;;;;;;;;;;;;;8.69;40.92;100546.41;5072100;28;19926;-63
2023/12/12 00:33:43;;;;;;;;;;;;;;;8.71;40.76;100555.09;5073267;28;20457;-64
2023/12/12 00:36:09;;;;;;;;;;;;;;;8.71;40.31;100549.72;5070957;28;19931;-64
2023/12/12 00:38:34;;;;;;;;;;;;;;;8.72;40.28;100548.69;5068707;28;19959;-62
2023/12/12 00:40:59;;;;;;;;;;;;;;;8.74;40.34;100556.56;5072147;28;19942;-62
2023/12/12 00:43:25;;;;;;;;;;;;;;;8.71;40.46;100557.78;5071295;28;19919;-62
2023/12/12 00:45:50;;;;;;;;;;;;;;;8.67;40.22;100556.47;5073995;28;20393;-62
2023/12/12 00:48:17;;;;;;;;;;;;;;;8.64;39.75;100564.84;5071596;28;19969;-63
2023/12/12 00:50:42;;;;;;;;;;;;;;;8.63;40.59;100560.50;5077286;28;19964;-63
2023/12/12 00:53:08;;;;;;;;;;;;;;;8.64;40.96;100569.38;5075913;28;20011;-64
2023/12/12 00:55:33;;;;;;;;;;;;;;;8.61;39.82;100575.06;5069465;28;19920;-64
2023/12/12 00:57:59;;;;;;;;;;;;;;;8.62;40.34;100577.56;5076050;28;20375;-62
2023/12/12 01:00:24;;;;;;;;;;;;;;;8.63;41.01;100573.88;5071595;28;20031;-63
2023/12/12 01:02:50;;;;;;;;;;;;;;;8.63;40.38;100573.88;5073209;28;20337;-64
2023/12/12 01:05:15;;;;;;;;;;;;;;;8.62;40.63;100574.06;5072962;28;20249;-63
2023/12/12 01:07:41;;;;;;;;;;;;;;;8.61;40.29;100575.91;5070395;28;19919;-67
2023/12/12 01:10:06;;;;;;;;;;;;;;;8.62;40.50;100572.22;5071621;28;19919;-67
2023/12/12 01:12:32;;;;;;;;;;;;;;;8.61;40.27;100583.94;5070209;28;20385;-67
2023/12/12 01:15:00;;;;;;;;;;;;;;;8.64;40.51;100580.09;5072499;28;20450;-65
2023/12/12 01:17:26;;;;;;;;;;;;;;;8.63;40.34;100586.44;5072271;28;20366;-66
2023/12/12 01:19:52;;;;;;;;;;;;;;;8.62;40.95;100579.44;5068274;28;19995;-60
2023/12/12 01:22:17;;;;;;;;;;;;;;;8.61;39.91;100578.56;5072525;28;20412;-63
2023/12/12 01:24:43;;;;;;;;;;;;;;;8.59;40.07;100577.91;5072544;28;19912;-62
2023/12/12 01:27:11;;;;;;;;;;;;;;;8.57;39.84;100571.91;5072405;28;19913;-62
2023/12/12 01:29:36;;;;;;;;;;;;;;;8.60;40.10;100574.25;5072651;28;19919;-62
2023/12/12 01:32:02;;;;;;;;;;;;;;;8.61;40.34;100583.09;5072397;28;19917;-61
2023/12/12 01:34:27;;;;;;;;;;;;;;;8.59;39.90;100580.59;5072233;28;20029;-61
2023/12/12 01:36:54;;;;;;;;;;;;;;;8.60;39.87;100584.97;5085846;28;19923;-61
2023/12/12 01:39:19;;;;;;;;;;;;;;;8.55;40.53;100581.97;5076063;28;20276;-61
2023/12/12 01:41:48;;;;;;;;;;;;;;;8.58;40.49;100589.66;5073818;28;20405;-61
2023/12/12 01:44:14;;;;;;;;;;;;;;;8.58;39.92;100581.63;5073654;28;19920;-61
2023/12/12 01:46:41;;;;;;;;;;;;;;;8.61;41.30;100586.59;5073372;28;19912;-61
2023/12/12 01:49:07;;;;;;;;;;;;;;;8.57;40.76;100587.16;5073509;28;19917;-61
2023/12/12 01:51:32;;;;;;;;;;;;;;;8.58;41.01;100588.81;5073838;28;19912;-62
2023/12/12 01:54:00;;;;;;;;;;;;;;;8.57;39.96;100598.69;5072792;28;20280;-62
2023/12/12 01:56:26;;;;;;;;;;;;;;;8.58;40.54;100595.00;5079119;28;20369;-62
2023/12/12 01:58:52;;;;;;;;;;;;;;;8.61;41.09;100597.31;5087131;28;19916;-62
2023/12/12 02:01:18;;;;;;;;;;;;;;;8.61;40.59;100600.00;5072647;28;19917;-62
2023/12/12 02:03:44;;;;;;;;;;;;;;;8.60;40.01;100600.16;5053433;28;20235;-62
2023/12/12 02:06:13;;;;;;;;;;;;;;;8.58;39.75;100597.69;5053457;28;20006;-62
2023/12/12 02:08:40;;;;;;;;;;;;;;;8.60;40.90;100605.50;5053135;28;19921;-61
2023/12/12 02:11:06;;;;;;;;;;;;;;;8.58;40.77;100596.84;5053423;28;19913;-61
2023/12/12 02:13:31;;;;;;;;;;;;;;;8.58;40.98;100605.72;5053073;28;19925;-62
2023/12/12 02:15:56;;;;;;;;;;;;;;;8.58;40.50;100608.41;5064946;28;20414;-61
2023/12/12 02:18:22;;;;;;;;;;;;;;;8.57;40.21;100605.88;5073210;28;20357;-61
2023/12/12 02:20:47;;;;;;;;;;;;;;;8.57;40.29;100603.22;5078286;28;19961;-62
2023/12/12 02:23:13;;;;;;;;;;;;;;;8.58;41.02;100607.53;5080015;28;19916;-61
2023/12/12 02:25:38;;;;;;;;;;;;;;;8.59;40.56;100606.53;5080172;28;20312;-62
2023/12/12 02:28:05;;;;;;;;;;;;;;;8.59;40.22;100612.72;5079956;28;19923;-62
2023/12/12 02:30:31;;;;;;;;;;;;;;;8.59;40.86;100607.38;5079986;28;19912;-62
2023/12/12 02:32:58;;;;;;;;;;;;;;;8.60;39.63;100614.41;5079950;28;19912;-62
2023/12/12 02:35:23;;;;;;;;;;;;;;;8.60;39.87;100611.72;5079941;28;19912;-62
2023/12/12 02:37:48;;;;;;;;;;;;;;;8.63;40.40;100613.22;5079722;28;19923;-62
2023/12/12 02:40:14;;;;;;;;;;;;;;;8.61;40.11;100617.91;5079904;28;19913;-62
2023/12/12 02:42:44;;;;;;;;;;;;;;;8.62;40.65;100612.38;5079940;28;20353;-62
2023/12/12 02:45:09;;;;;;;;;;;;;;;8.64;40.38;100606.84;5079895;28;19913;-62
2023/12/12 02:47:34;;;;;;;;;;;;;;;8.60;39.75;100606.38;5079987;28;19912;-61
2023/12/12 02:50:00;;;;;;;;;;;;;;;8.63;40.37;100611.34;5094492;28;19912;-61
2023/12/12 02:52:32;;;;;;;;;;;;;;;8.64;41.00;100605.00;5059818;28;19917;-62
2023/12/12 02:54:58;;;;;;;;;;;;;;;8.63;40.61;100614.03;5069299;28;19977;-62
2023/12/12 02:57:24;;;;;;;;;;;;;;;8.63;40.66;100614.03;5079314;28;19916;-62
2023/12/12 02:59:49;;;;;;;;;;;;;;;8.62;40.34;100604.34;5079436;28;19913;-62
2023/12/12 03:02:15;;;;;;;;;;;;;;;8.60;41.02;100600.16;5071093;28;20012;-61
2023/12/12 03:04:44;;;;;;;;;;;;;;;8.62;40.23;100604.34;5058355;28;19948;-61
2023/12/12 03:07:10;;;;;;;;;;;;;;;8.62;40.54;100612.38;5059547;28;19912;-61
2023/12/12 03:09:35;;;;;;;;;;;;;;;8.63;40.05;100613.22;5059024;28;20430;-62
2023/12/12 03:12:01;;;;;;;;;;;;;;;8.63;40.45;100614.03;5058829;28;19928;-62
2023/12/12 03:14:29;;;;;;;;;;;;;;;8.64;40.71;100607.69;5060215;28;20026;-62
2023/12/12 03:16:55;;;;;;;;;;;;;;;8.64;40.70;100609.53;5079346;28;19979;-62
2023/12/12 03:19:21;;;;;;;;;;;;;;;8.64;39.99;100604.19;5079431;28;19924;-62
2023/12/12 03:21:46;;;;;;;;;;;;;;;8.64;40.35;100602.31;5079593;28;19913;-63
2023/12/12 03:24:12;;;;;;;;;;;;;;;8.67;40.48;100603.81;5079053;28;19938;-62
2023/12/12 03:26:37;;;;;;;;;;;;;;;8.67;40.75;100607.34;5079347;28;19916;-62
2023/12/12 03:29:02;;;;;;;;;;;;;;;8.67;41.01;100607.34;5079614;28;19912;-62
2023/12/12 03:31:28;;;;;;;;;;;;;;;8.65;40.10;100606.66;5077741;28;19916;-62
2023/12/12 03:33:53;;;;;;;;;;;;;;;8.64;40.83;100605.00;5075933;28;19912;-62
2023/12/12 03:36:18;;;;;;;;;;;;;;;8.64;41.00;100604.19;5075972;28;20007;-62
2023/12/12 03:38:43;;;;;;;;;;;;;;;8.64;40.46;100606.84;5080506;28;19916;-62
2023/12/12 03:41:10;;;;;;;;;;;;;;;8.62;39.86;100603.53;5097055;28;19919;-62
2023/12/12 03:43:36;;;;;;;;;;;;;;;8.62;41.14;100606.19;5098088;28;19912;-60
2023/12/12 03:46:01;;;;;;;;;;;;;;;8.61;40.47;100599.16;5098196;28;19923;-61
2023/12/12 03:48:26;;;;;;;;;;;;;;;8.61;40.93;100602.66;5096454;28;20014;-61
2023/12/12 03:50:52;;;;;;;;;;;;;;;8.61;40.37;100597.31;5094365;28;19998;-60
2023/12/12 03:53:17;;;;;;;;;;;;;;;8.57;40.71;100600.53;5075957;28;19920;-60
2023/12/12 03:55:42;;;;;;;;;;;;;;;8.56;40.50;100601.53;5075125;28;19913;-60
2023/12/12 03:58:08;;;;;;;;;;;;;;;8.55;40.35;100603.38;5095816;28;19927;-58
2023/12/12 04:00:33;;;;;;;;;;;;;;;8.57;40.14;100605.88;5095817;28;19923;-61
2023/12/12 04:02:58;;;;;;;;;;;;;;;8.58;40.18;100603.03;5081091;28;19912;-61
2023/12/12 04:05:24;;;;;;;;;;;;;;;8.55;39.25;100595.34;5075549;28;20255;-60
2023/12/12 04:07:49;;;;;;;;;;;;;;;8.59;41.04;100599.34;5075428;28;19952;-61
2023/12/12 04:10:14;;;;;;;;;;;;;;;8.57;40.44;100601.34;5074420;28;19938;-61
2023/12/12 04:12:41;;;;;;;;;;;;;;;8.58;40.33;100599.50;5075357;28;20349;-61
2023/12/12 04:15:07;;;;;;;;;;;;;;;8.59;40.24;100595.84;5075496;28;20000;-61
2023/12/12 04:17:32;;;;;;;;;;;;;;;8.57;39.96;100596.00;5075516;28;20373;-61
2023/12/12 04:19:58;;;;;;;;;;;;;;;8.54;40.81;100601.69;5075087;28;19920;-61
2023/12/12 04:22:23;;;;;;;;;;;;;;;8.57;39.82;100605.88;5075301;28;19951;-61
2023/12/12 04:24:48;;;;;;;;;;;;;;;8.53;40.27;100602.72;5075317;28;19947;-61
2023/12/12 04:27:14;;;;;;;;;;;;;;;8.52;40.18;100606.41;5075390;28;20319;-61
2023/12/12 04:29:39;;;;;;;;;;;;;;;8.52;40.29;100607.25;5087734;28;19912;-61
2023/12/12 04:32:05;;;;;;;;;;;;;;;8.52;39.64;100606.41;5095770;28;20417;-61
2023/12/12 04:34:31;;;;;;;;;;;;;;;8.53;39.74;100602.72;5095056;28;19916;-61
2023/12/12 04:36:56;;;;;;;;;;;;;;;8.52;40.32;100601.91;5075394;28;19919;-61
2023/12/12 04:39:21;;;;;;;;;;;;;;;8.55;40.63;100600.72;5075283;28;19917;-61
2023/12/12 04:41:47;;;;;;;;;;;;;;;8.56;40.46;100597.00;5074971;28;19912;-62
2023/12/12 04:44:12;;;;;;;;;;;;;;;8.56;40.51;100604.22;5074110;28;19952;-62
2023/12/12 04:46:37;;;;;;;;;;;;;;;8.52;40.44;100604.59;5074814;28;19916;-62
2023/12/12 04:49:03;;;;;;;;;;;;;;;8.50;40.06;100606.56;5074542;28;19919;-61
2023/12/12 04:51:28;;;;;;;;;;;;;;;8.52;40.71;100606.41;5085810;28;19912;-60
2023/12/12 04:53:54;;;;;;;;;;;;;;;8.51;40.28;100612.78;5092835;28;19913;-61
2023/12/12 04:56:20;;;;;;;;;;;;;;;8.46;40.83;100613.28;5074926;28;19999;-61
2023/12/12 04:58:46;;;;;;;;;;;;;;;8.47;40.31;100616.81;5074286;28;20007;-61
2023/12/12 05:01:14;;;;;;;;;;;;;;;8.46;40.46;100615.97;5074430;28;19919;-61
2023/12/12 05:03:39;;;;;;;;;;;;;;;8.45;40.76;100617.00;5054475;28;19916;-61
2023/12/12 05:06:09;;;;;;;;;;;;;;;8.46;40.64;100623.19;5054667;28;19913;-61
2023/12/12 05:08:35;;;;;;;;;;;;;;;8.47;40.82;100627.53;5054562;28;20254;-61
2023/12/12 05:11:00;;;;;;;;;;;;;;;8.45;41.20;100632.19;5066134;28;19917;-62
2023/12/12 05:13:25;;;;;;;;;;;;;;;8.47;41.24;100632.88;5074022;28;19999;-61
2023/12/12 05:15:51;;;;;;;;;;;;;;;8.48;40.31;100631.88;5073929;28;19981;-60
2023/12/12 05:18:17;;;;;;;;;;;;;;;8.48;40.96;100629.19;5073784;28;19917;-62
2023/12/12 05:20:42;;;;;;;;;;;;;;;8.49;39.65;100637.03;5093927;28;19912;-62
2023/12/12 05:23:08;;;;;;;;;;;;;;;8.50;40.33;100637.88;5094620;28;19916;-62
2023/12/12 05:25:33;;;;;;;;;;;;;;;8.52;40.92;100634.03;5094303;28;20284;-62
2023/12/12 05:27:59;;;;;;;;;;;;;;;8.52;40.24;100631.34;5094364;28;19916;-61
2023/12/12 05:30:25;;;;;;;;;;;;;;;8.53;40.24;100640.19;5094300;28;20458;-62
2023/12/12 05:32:50;;;;;;;;;;;;;;;8.53;40.72;100632.19;5092614;28;19912;-60
2023/12/12 05:35:15;;;;;;;;;;;;;;;8.57;40.30;100638.84;5088729;28;19912;-62
2023/12/12 05:37:41;;;;;;;;;;;;;;;8.60;40.40;100634.97;5073765;28;19948;-61
2023/12/12 05:40:06;;;;;;;;;;;;;;;8.57;39.87;100640.69;5074013;28;19912;-60
2023/12/12 05:42:32;;;;;;;;;;;;;;;8.57;40.55;100636.16;5073841;28;19916;-61
2023/12/12 05:44:57;;;;;;;;;;;;;;;8.55;40.07;100626.66;5073629;28;20431;-60
2023/12/12 05:47:22;;;;;;;;;;;;;;;8.54;40.31;100636.50;5073416;28;19974;-62
2023/12/12 05:49:48;;;;;;;;;;;;;;;8.54;40.56;100631.16;5073947;28;19916;-61
2023/12/12 05:52:14;;;;;;;;;;;;;;;8.51;40.03;100629.66;5091122;28;19955;-61
2023/12/12 05:54:40;;;;;;;;;;;;;;;8.51;40.09;100626.16;5085214;28;20042;-63
2023/12/12 05:57:05;;;;;;;;;;;;;;;8.51;40.28;100624.31;5073777;28;19912;-62
2023/12/12 05:59:31;;;;;;;;;;;;;;;8.50;39.54;100627.16;5073333;28;19916;-62
2023/12/12 06:01:56;;;;;;;;;;;;;;;8.51;40.45;100637.69;5073247;28;19913;-62
2023/12/12 06:04:21;;;;;;;;;;;;;;;8.50;40.58;100635.19;5073627;28;19913;-62
2023/12/12 06:06:47;;;;;;;;;;;;;;;8.49;40.06;100636.22;5073358;28;19917;-62
2023/12/12 06:09:13;;;;;;;;;;;;;;;8.45;40.17;100638.41;5081730;28;19912;-62
2023/12/12 06:11:38;;;;;;;;;;;;;;;8.46;40.89;100641.91;5092091;28;20284;-62
2023/12/12 06:14:05;;;;;;;;;;;;;;;8.45;40.94;100638.41;5073293;28;19917;-62
2023/12/12 06:16:30;;;;;;;;;;;;;;;8.47;41.01;100643.59;5073523;28;19927;-62
2023/12/12 06:18:56;;;;;;;;;;;;;;;8.47;40.13;100640.91;5073502;28;19917;-63
2023/12/12 06:21:21;;;;;;;;;;;;;;;8.44;40.21;100639.41;5073448;28;19932;-62
2023/12/12 06:23:46;;;;;;;;;;;;;;;8.42;40.33;100649.47;5073500;28;20407;-62
2023/12/12 06:26:12;;;;;;;;;;;;;;;8.46;40.91;100655.28;5073529;28;20326;-62
2023/12/12 06:28:37;;;;;;;;;;;;;;;8.45;40.60;100653.63;5072088;28;19923;-62
2023/12/12 06:31:03;;;;;;;;;;;;;;;8.39;39.92;100652.44;5073306;28;20365;-63
2023/12/12 06:33:29;;;;;;;;;;;;;;;8.40;40.10;100655.97;5073239;28;20003;-63
2023/12/12 06:35:57;;;;;;;;;;;;;;;8.37;40.23;100654.47;5072960;28;20000;-63
2023/12/12 06:38:22;;;;;;;;;;;;;;;8.36;40.44;100655.47;5073193;28;19923;-63
2023/12/12 06:40:48;;;;;;;;;;;;;;;8.38;41.22;100650.78;5072717;28;20011;-63
2023/12/12 06:43:13;;;;;;;;;;;;;;;8.37;40.75;100654.47;5072984;28;19956;-63
2023/12/12 06:45:38;;;;;;;;;;;;;;;8.37;41.06;100642.94;5071778;28;19969;-63
2023/12/12 06:48:04;;;;;;;;;;;;;;;8.37;40.65;100656.31;5073143;28;19912;-63
2023/12/12 06:50:29;;;;;;;;;;;;;;;8.35;39.16;100656.47;5075801;28;20395;-63
2023/12/12 06:52:54;;;;;;;;;;;;;;;8.34;40.44;100663.69;5093502;28;19912;-62
2023/12/12 06:55:20;;;;;;;;;;;;;;;8.37;39.37;100667.00;5079225;28;19920;-62
2023/12/12 06:57:45;;;;;;;;;;;;;;;8.33;38.97;100669.19;5072718;28;19944;-63
2023/12/12 07:00:11;;;;;;;;;;;;;;;8.32;39.36;100673.72;5089476;28;19912;-62
2023/12/12 07:02:36;;;;;;;;;;;;;;;8.34;40.25;100679.75;5081356;28;19913;-62
2023/12/12 07:05:04;;;;;;;;;;;;;;;8.39;39.80;100668.50;5073156;28;19916;-62
2023/12/12 07:07:30;;;;;;;;;;;;;;;8.33;38.54;100664.69;5075459;28;19991;-62
2023/12/12 07:09:55;;;;;;;;;;;;;;;8.35;40.71;100667.19;5076615;28;20321;-61
2023/12/12 07:12:20;;;;;;;;;;;;;;;8.37;40.06;100683.91;5076028;28;19974;-62
2023/12/12 07:14:46;;;;;;;;;;;;;;;8.36;40.41;100682.25;5076089;28;19916;-62
2023/12/12 07:17:11;;;;;;;;;;;;;;;8.35;40.41;100688.59;5075982;28;19951;-62
2023/12/12 07:19:37;;;;;;;;;;;;;;;8.38;39.98;100685.56;5076240;28;19917;-61
2023/12/12 07:22:02;;;;;;;;;;;;;;;8.33;39.53;100694.09;5075998;28;20325;-62
2023/12/12 07:24:28;;;;;;;;;;;;;;;8.33;40.49;100691.44;5075855;28;19970;-62
2023/12/12 07:26:53;;;;;;;;;;;;;;;8.28;39.39;100698.31;5075824;28;19944;-61
2023/12/12 07:29:19;;;;;;;;;;;;;;;8.28;39.01;100699.16;5075699;28;19913;-62
2023/12/12 07:31:45;;;;;;;;;;;;;;;8.31;40.01;100697.97;5076013;28;20003;-62
2023/12/12 07:34:11;;;;;;;;;;;;;;;8.31;39.44;100701.47;5075774;28;20416;-61
2023/12/12 07:36:37;;;;;;;;;;;;;;;8.31;39.57;100695.31;5075518;28;19912;-62
2023/12/12 07:39:04;;;;;;;;;;;;;;;8.27;39.06;100694.81;5075941;28;19996;-64
2023/12/12 07:41:31;;;;;;;;;;;;;;;8.26;39.95;100693.13;5075480;28;20289;-65
2023/12/12 07:43:57;;;;;;;;;;;;;;;8.27;40.07;100699.34;5075707;28;19913;-65
2023/12/12 07:46:23;;;;;;;;;;;;;;;8.29;39.18;100706.16;5075416;28;19913;-65
2023/12/12 07:48:49;;;;;;;;;;;;;;;8.30;39.52;100707.00;5076264;28;19917;-65
2023/12/12 07:51:14;;;;;;;;;;;;;;;8.31;39.25;100706.00;5076898;28;19919;-65
2023/12/12 07:53:39;;;;;;;;;;;;;;;8.30;40.14;100713.22;5075543;28;19912;-65
2023/12/12 07:56:05;;;;;;;;;;;;;;;8.32;40.09;100707.66;5074648;28;19958;-64
2023/12/12 07:58:31;;;;;;;;;;;;;;;8.30;39.72;100707.00;5075534;28;19924;-65
2023/12/12 08:00:57;;;;;;;;;;;;;;;8.31;39.26;100711.34;5075823;28;20258;-65
2023/12/12 08:03:22;;;;;;;;;;;;;;;8.34;39.62;100717.19;5075581;28;19912;-65
2023/12/12 08:05:48;;;;;;;;;;;;;;;8.33;38.85;100718.19;5075067;28;20298;-64
2023/12/12 08:08:14;;;;;;;;;;;;;;;8.28;38.18;100717.91;5073945;28;19917;-64
2023/12/12 08:10:39;;;;;;;;;;;;;;;8.28;38.50;100715.22;5075050;28;19913;-64
2023/12/12 08:13:04;;;;;;;;;;;;;;;8.28;38.65;100714.38;5075106;28;20056;-63
2023/12/12 08:15:30;;;;;;;;;;;;;;;8.21;38.29;100711.56;5062459;28;20376;-63
2023/12/12 08:17:56;;;;;;;;;;;;;;;8.23;39.55;100725.59;5070776;28;19924;-64
2023/12/12 08:20:21;;;;;;;;;;;;;;;8.24;38.13;100716.56;5071409;28;19916;-64
2023/12/12 08:22:46;;;;;;;;;;;;;;;8.23;38.52;100714.91;5074721;28;20313;-63
2023/12/12 08:25:12;;;;;;;;;;;;;;;8.25;38.45;100720.91;5070765;28;20537;-64
2023/12/12 08:27:37;;;;;;;;;;;;;;;8.26;38.86;100725.25;5074180;28;19927;-64
2023/12/12 08:30:04;;;;;;;;;;;;;;;8.25;38.61;100731.63;5073961;28;19920;-63
2023/12/12 08:32:30;;;;;;;;;;;;;;;8.26;38.11;100730.59;5067532;28;20288;-64
2023/12/12 08:34:55;;;;;;;;;;;;;;;8.25;38.00;100728.94;5072731;28;19917;-63
2023/12/12 08:37:21;;;;;;;;;;;;;;;8.25;40.31;100720.09;5061815;28;19912;-62
2023/12/12 08:39:46;;;;;;;;;;;;;;;8.31;38.59;100727.41;5085183;28;19916;-64
2023/12/12 08:42:12;;;;;;;;;;;;;;;8.31;38.91;100733.59;5073601;28;20307;-64
2023/12/12 08:44:40;;;;;;;;;;;;;;;8.31;38.09;100728.25;5068702;28;19934;-64
2023/12/12 08:47:07;;;;;;;;;;;;;;;8.28;39.04;100733.94;5073744;28;20006;-63
2023/12/12 08:49:37;;;;;;;;;;;;;;;8.32;39.86;100727.25;5072131;28;19920;-64
2023/12/12 08:52:04;;;;;;;;;;;;;;;8.34;38.74;100730.56;5072949;28;19962;-64
2023/12/12 08:54:29;;;;;;;;;;;;;;;8.33;38.41;100722.72;5072840;28;20486;-64
2023/12/12 08:56:54;;;;;;;;;;;;;;;8.32;38.31;100721.03;5080742;28;19934;-62
2023/12/12 08:59:23;;;;;;;;;;;;;;;8.33;38.58;100725.41;5072324;28;20003;-64
2023/12/12 09:01:49;;;;;;;;;;;;;;;8.33;39.50;100726.22;5068896;28;19913;-63
2023/12/12 09:04:16;;;;;;;;;;;;;;;8.34;39.48;100719.88;5071708;28;20031;-63
2023/12/12 09:06:42;;;;;;;;;;;;;;;8.36;39.36;100716.19;5068263;28;19921;-63
2023/12/12 09:09:07;;;;;;;;;;;;;;;8.36;39.01;100721.53;5071182;28;19912;-61
2023/12/12 09:11:35;;;;;;;;;;;;;;;8.36;38.21;100717.03;5073354;28;19912;-62
2023/12/12 09:14:01;;;;;;;;;;;;;;;8.33;39.30;100723.53;5071559;28;19999;-63
2023/12/12 09:16:26;;;;;;;;;;;;;;;8.32;39.11;100721.91;5072266;28;20058;-63
2023/12/12 09:18:51;;;;;;;;;;;;;;;8.33;38.40;100722.72;5072664;28;19928;-62
2023/12/12 09:21:17;;;;;;;;;;;;;;;8.32;38.20;100723.72;5071090;28;19919;-61
2023/12/12 09:23:42;;;;;;;;;;;;;;;8.35;37.83;100718.03;5071218;28;19987;-62
2023/12/12 09:26:14;;;;;;;;;;;;;;;8.34;38.07;100716.38;5067781;28;19917;-62
2023/12/12 09:28:43;;;;;;;;;;;;;;;8.34;38.29;100722.56;5071591;28;19920;-62
2023/12/12 09:31:08;;;;;;;;;;;;;;;8.35;38.96;100718.03;5072135;28;19916;-63
2023/12/12 09:33:34;;;;;;;;;;;;;;;8.38;38.68;100715.00;5069586;28;20069;-61
2023/12/12 09:36:00;;;;;;;;;;;;;;;8.44;38.77;100722.38;5071824;28;20396;-62
2023/12/12 09:38:25;;;;;;;;;;;;;;;8.42;38.17;100724.38;5064842;28;19920;-62
2023/12/12 09:40:51;;;;;;;;;;;;;;;8.41;38.12;100714.66;5069943;28;19912;-63
2023/12/12 09:43:18;;;;;;;;;;;;;;;8.40;37.78;100717.53;5071062;28;19919;-63
2023/12/12 09:45:45;;;;;;;;;;;;;;;8.38;37.76;100714.19;5070082;28;19927;-62
2023/12/12 09:48:11;;;;;;;;;;;;;;;8.39;38.86;100710.50;5069661;28;19912;-63
2023/12/12 09:50:37;;;;;;;;;;;;;;;8.40;37.51;100717.53;5071573;28;19931;-65
2023/12/12 09:53:02;;;;;;;;;;;;;;;8.39;39.26;100718.50;5073003;28;19916;-61
2023/12/12 09:55:29;;;;;;;;;;;;;;;8.45;39.31;100713.34;5069765;28;20334;-64
2023/12/12 09:57:54;;;;;;;;;;;;;;;8.49;38.86;100717.34;5069105;28;19956;-65
2023/12/12 10:00:21;;;;;;;;;;;;;;;8.49;38.47;100711.16;5072663;28;19959;-63
2023/12/12 10:02:47;;;;;;;;;;;;;;;8.50;38.85;100710.13;5070910;28;19967;-64
2023/12/12 10:05:13;;;;;;;;;;;;;;;8.52;38.40;100713.47;5073213;28;19963;-64
2023/12/12 10:07:40;;;;;;;;;;;;;;;8.52;38.48;100713.47;5072402;28;19966;-65
2023/12/12 10:10:07;;;;;;;;;;;;;;;8.52;38.27;100711.66;5069121;28;20396;-66
2023/12/12 10:12:33;;;;;;;;;;;;;;;8.57;37.87;100715.63;5072495;28;19931;-64
2023/12/12 10:14:58;;;;;;;;;;;;;;;8.56;37.50;100712.09;5070522;28;19939;-66
2023/12/12 10:17:25;;;;;;;;;;;;;;;8.56;37.75;100714.78;5072119;28;19912;-66
2023/12/12 10:20:00;;;;;;;;;;;;;;;8.56;37.55;100711.28;5086095;28;19943;-61
2023/12/12 10:22:29;;;;;;;;;;;;;;;8.59;38.41;100706.41;5067071;28;19912;-62
2023/12/12 10:25:06;;;;;;;;;;;;;;;8.62;37.49;100710.59;5072578;28;20374;-62
2023/12/12 10:27:32;;;;;;;;;;;;;;;8.64;37.62;100712.09;5068483;28;20450;-62
2023/12/12 10:29:58;;;;;;;;;;;;;;;8.62;36.64;100714.09;5069095;28;19912;-60
2023/12/12 10:32:24;;;;;;;;;;;;;;;8.64;37.51;100719.28;5070395;28;19935;-62
2023/12/12 10:34:49;;;;;;;;;;;;;;;8.64;38.05;100722.78;5071091;28;20361;-62
2023/12/12 10:37:18;;;;;;;;;;;;;;;8.66;37.28;100723.44;5070836;28;19921;-60
2023/12/12 10:39:43;;;;;;;;;;;;;;;8.67;36.79;100721.59;5069751;28;20436;-62
2023/12/12 10:42:09;;;;;;;;;;;;;;;8.64;37.10;100717.44;5074960;28;19923;-64
2023/12/12 10:44:36;;;;;;;;;;;;;;;8.64;37.28;100717.44;5072940;28;19913;-64
2023/12/12 10:47:03;;;;;;;;;;;;;;;8.66;37.21;100712.75;5072894;28;20411;-67
2023/12/12 10:49:31;;;;;;;;;;;;;;;8.67;36.90;100722.47;5076398;28;19922;-67
2023/12/12 10:51:56;;;;;;;;;;;;;;;8.64;37.03;100720.13;5074658;28;19955;-66
2023/12/12 10:54:22;;;;;;;;;;;;;;;8.67;37.49;100717.09;5075067;28;20306;-67
2023/12/12 10:56:49;;;;;;;;;;;;;;;8.67;36.92;100710.91;5076896;28;19966;-66
2023/12/12 10:59:16;;;;;;;;;;;;;;;8.65;36.98;100716.41;5073148;28;19978;-65
2023/12/12 11:01:48;;;;;;;;;;;;;;;8.67;37.43;100721.59;5073654;28;20071;-66
2023/12/12 11:04:14;;;;;;;;;;;;;;;8.67;36.43;100716.25;5074670;28;19982;-66
2023/12/12 11:06:41;;;;;;;;;;;;;;;8.70;36.84;100721.25;5075575;28;19965;-66
2023/12/12 11:09:06;;;;;;;;;;;;;;;8.72;37.04;100720.06;5077397;28;19920;-65
2023/12/12 11:11:32;;;;;;;;;;;;;;;8.75;38.84;100718.91;5072842;28;19913;-63
2023/12/12 11:14:00;;;;;;;;;;;;;;;8.78;36.81;100707.81;5075308;28;19913;-63
2023/12/12 11:16:26;;;;;;;;;;;;;;;8.73;37.05;100718.25;5074389;28;21302;-63
2023/12/12 11:18:52;;;;;;;;;;;;;;;8.74;37.68;100713.72;5072372;28;19943;-64
2023/12/12 11:21:36;;;;;;;;;;;;;;;8.71;37.35;100707.69;5069287;28;19955;-66
2023/12/12 11:24:02;;;;;;;;;;;;;;;8.76;37.88;100711.69;5070248;28;19958;-63
2023/12/12 11:26:28;;;;;;;;;;;;;;;8.76;37.71;100709.00;5072469;28;19913;-62
2023/12/12 11:28:54;;;;;;;;;;;;;;;8.79;37.47;100709.50;5073684;28;20360;-63
2023/12/12 11:31:20;;;;;;;;;;;;;;;8.78;36.75;100707.00;5073937;28;19912;-63
2023/12/12 11:34:00;;;;;;;;;;;;;;;8.76;37.90;100717.88;5075739;28;19912;-63
2023/12/12 11:36:25;;;;;;;;;;;;;;;8.79;37.52;100711.34;5074245;28;19950;-64
2023/12/12 11:38:53;;;;;;;;;;;;;;;8.75;36.72;100713.53;5074123;28;19955;-63
2023/12/12 11:41:19;;;;;;;;;;;;;;;8.71;36.33;100699.66;5073443;28;19916;-63
2023/12/12 11:43:45;;;;;;;;;;;;;;;8.69;36.51;100704.38;5073540;28;19958;-63
2023/12/12 11:46:21;;;;;;;;;;;;;;;8.68;36.63;100694.66;5075008;28;20241;-66
2023/12/12 11:48:46;;;;;;;;;;;;;;;8.72;37.03;100706.69;5073290;28;19912;-64
2023/12/12 11:51:50;;;;;;;;;;;;;;;8.73;36.93;100702.19;5074270;28;19924;-63
2023/12/12 11:54:24;;;;;;;;;;;;;;;8.75;37.45;100699.28;5079041;28;19951;-61
2023/12/12 11:56:59;;;;;;;;;;;;;;;8.76;36.84;100700.97;5078789;28;19999;-62
2023/12/12 11:59:26;;;;;;;;;;;;;;;8.77;35.42;100708.84;5069911;28;19924;-64
2023/12/12 12:01:52;;;;;;;;;;;;;;;8.78;36.27;100709.66;5073076;28;19912;-64
2023/12/12 12:04:18;;;;;;;;;;;;;;;8.71;35.17;100702.34;5073378;28;19995;-61
2023/12/12 12:06:43;;;;;;;;;;;;;;;8.72;36.72;100704.00;5072051;28;20000;-63
2023/12/12 12:09:11;;;;;;;;;;;;;;;8.70;36.17;100706.03;5072100;28;19912;-63
2023/12/12 12:11:37;;;;;;;;;;;;;;;8.70;37.00;100700.66;5072928;28;20015;-64
2023/12/12 12:14:03;;;;;;;;;;;;;;;8.71;35.66;100709.53;5073354;28;20007;-62
2023/12/12 12:16:29;;;;;;;;;;;;;;;8.66;35.36;100707.38;5070751;28;20015;-60
2023/12/12 12:18:54;;;;;;;;;;;;;;;8.62;35.52;100707.94;5072783;28;19916;-61
2023/12/12 12:21:23;;;;;;;;;;;;;;;8.56;35.09;100700.56;5074989;28;19935;-62
2023/12/12 12:23:48;;;;;;;;;;;;;;;8.56;36.53;100713.97;5071308;28;20350;-63
2023/12/12 12:26:14;;;;;;;;;;;;;;;8.58;37.48;100704.75;5073797;28;20046;-63
2023/12/12 12:28:40;;;;;;;;;;;;;;;8.57;35.97;100705.75;5074704;28;19920;-65
2023/12/12 12:31:06;;;;;;;;;;;;;;;8.53;36.77;100709.81;5072154;28;20297;-63
2023/12/12 12:33:32;;;;;;;;;;;;;;;8.49;36.87;100712.00;5074204;28;19922;-63
2023/12/12 12:35:57;;;;;;;;;;;;;;;8.52;36.98;100710.78;5071856;28;19913;-64
2023/12/12 12:38:26;;;;;;;;;;;;;;;8.49;35.68;100708.50;5072205;28;20300;-62
2023/12/12 12:40:52;;;;;;;;;;;;;;;8.40;37.45;100709.50;5073639;28;19913;-64
2023/12/12 12:43:18;;;;;;;;;;;;;;;8.36;35.92;100713.50;5069845;28;19912;-65